WetterOnline ( https://www.wetteronline.de )

Wetter aktuell Bietigheim-Bissingen

Aktuelles Wetter: Schnarrenberg/Stuttgart (315m)

6-stündlich | Neueste Meldungen
Ortszeit Temperatur Wetter
Mo, 30.01. 1:00 -1.9° C leicht bewölkt
So, 29.01. 19:00 -0.6° C wolkenlos
So, 29.01. 13:00 0.5° C bedeckt
So, 29.01. 7:00 -1.6° C bedeckt
So, 29.01. 1:00 -0.8° C bedeckt
Sa, 28.01. 19:00 0.7° C bedeckt
Sa, 28.01. 13:00 1.2° C bedeckt
Sa, 28.01. 7:00 -0.1° C bedeckt
Ortszeit Temperatur Wetter
Mo, 30.01. 1:30 -1.7° C fast wolkenlos
Mo, 30.01. 1:20 -1.7° C fast wolkenlos
Mo, 30.01. 1:10 -2.0° C leicht bewölkt
Mo, 30.01. 1:00 -1.9° C leicht bewölkt
Mo, 30.01. 0:50 -1.9° C leicht bewölkt
Mo, 30.01. 0:40 -1.7° C leicht bewölkt
Mo, 30.01. 0:30 -1.7° C leicht bewölkt
Mo, 30.01. 0:00 -2.1° C wolkenlos
So, 29.01. 23:30 -1.7° C fast wolkenlos
So, 29.01. 23:00 -2.0° C wolkig
So, 29.01. 22:30 -1.4° C fast wolkenlos
Ortszeit Relative Feuchte Sichtweite
Mo, 30.01. 1:00 81% 27 km
So, 29.01. 19:00 77% 35 km
So, 29.01. 13:00 69% 30 km
So, 29.01. 7:00 80% 35 km
So, 29.01. 1:00 76% 45 km
Sa, 28.01. 19:00 79% 50 km
Sa, 28.01. 13:00 81% 26 km
Sa, 28.01. 7:00 85% 35 km
Ortszeit Relative Feuchte Sichtweite
Mo, 30.01. 1:30 81% 29 km
Mo, 30.01. 1:20 81% -
Mo, 30.01. 1:10 82% -
Mo, 30.01. 1:00 81% 27 km
Mo, 30.01. 0:50 81% -
Mo, 30.01. 0:40 81% -
Mo, 30.01. 0:30 81% 28 km
Mo, 30.01. 0:00 84% 27 km
So, 29.01. 23:30 82% 30 km
So, 29.01. 23:00 85% 24 km
So, 29.01. 22:30 82% 25 km
Ortszeit Niederschlagsmenge Niederschlagsart
Mo, 30.01. 1:00 0.0 l/m2 in 6 Std. -
So, 29.01. 19:00 0.0 l/m2 in 12 Std. -
So, 29.01. 13:00 0.0 l/m2 in 6 Std. -
So, 29.01. 7:00 0.0 l/m2 in 12 Std. -
So, 29.01. 1:00 0.0 l/m2 in 6 Std. -
Sa, 28.01. 19:00 0.1 l/m2 in 12 Std. Schnee, Regen
Sa, 28.01. 13:00 0.0 l/m2 in 6 Std. -
Sa, 28.01. 7:00 0.1 l/m2 in 12 Std. Sprühregen
Ortszeit Niederschlagsmenge Niederschlagsart
Mo, 30.01. 1:30 0.0 l/m2 in 30 Min -
Mo, 30.01. 1:20 keine Meldung -
Mo, 30.01. 1:10 keine Meldung -
Mo, 30.01. 1:00 0.0 l/m2 in 1 Std. -
Mo, 30.01. 0:50 keine Meldung -
Mo, 30.01. 0:40 keine Meldung -
Mo, 30.01. 0:30 0.0 l/m2 in 30 Min -
Mo, 30.01. 0:00 0.0 l/m2 in 1 Std. -
So, 29.01. 23:30 0.0 l/m2 in 30 Min -
So, 29.01. 23:00 0.0 l/m2 in 1 Std. -
So, 29.01. 22:30 0.0 l/m2 in 30 Min -
Ortszeit Stärke Spitze Richtung
km/h Bft. km/h Grad Sektor
Mo, 30.01. 1:00 7 2 14 230° SW
So, 29.01. 19:00 11 2 14 270° W
So, 29.01. 13:00 4 1 11 50° NO
So, 29.01. 7:00 4 1 14 310° NW
So, 29.01. 1:00 6 1 20 330° NW
Sa, 28.01. 19:00 7 2 22 50° NO
Sa, 28.01. 13:00 11 2 18 20° N
Sa, 28.01. 7:00 9 2 17 350° N
Ortszeit Stärke Spitze Richtung
km/h Bft. km/h Grad Sektor
Mo, 30.01. 1:30 9 2 17 200° S
Mo, 30.01. 1:20 9 2 - 200° S
Mo, 30.01. 1:10 7 2 - 230° SW
Mo, 30.01. 1:00 7 2 14 230° SW
Mo, 30.01. 0:50 7 2 - 230° SW
Mo, 30.01. 0:40 7 2 - 220° SW
Mo, 30.01. 0:30 7 2 14 210° SW
Mo, 30.01. 0:00 7 2 11 240° SW
So, 29.01. 23:30 7 2 11 260° W
So, 29.01. 23:00 6 1 15 260° W
So, 29.01. 22:30 9 2 15 190° S
Ortszeit Untergrenze Bedeckung Gattung
total tief tief mittel hoch
Mo, 30.01. 1:00 10500 m 4/8 0/8 - - -
So, 29.01. 19:00 - 0/8 0/8 - - -
So, 29.01. 13:00 630 m 8/8 8/8 - - -
So, 29.01. 7:00 690 m 8/8 8/8 - - -
So, 29.01. 1:00 570 m 8/8 8/8 - - -
Sa, 28.01. 19:00 540 m 8/8 8/8 - - -
Sa, 28.01. 13:00 420 m 8/8 8/8 - - -
Sa, 28.01. 7:00 870 m 8/8 8/8 - - -
Ortszeit Bedeckungsgrad in Achtel und Wolkenuntergrenze
Mo, 30.01. 1:30 1(10500m)
Mo, 30.01. 1:20 1(10500m)
Mo, 30.01. 1:10 2
Mo, 30.01. 1:00 4(10500m)
Mo, 30.01. 0:50 4(10500m)
Mo, 30.01. 0:40 4
Mo, 30.01. 0:30 5(10500m)
Mo, 30.01. 0:00 keine Wolken
So, 29.01. 23:30 1(10500m)
So, 29.01. 23:00 7(10500m)
So, 29.01. 22:30 2(8100m)
Ortszeit Luftdruck NN (hPa) Tendenz (hPa in 3 Std.)
Mo, 30.01. 1:00 1026 - 1,4
So, 29.01. 19:00 1028 - 0,1
So, 29.01. 13:00 1030 - 1,0
So, 29.01. 7:00 1030 - 0,2
So, 29.01. 1:00 1030 - 0,2
Sa, 28.01. 19:00 1029 + 1,1
Sa, 28.01. 13:00 1027 + 0,4
Sa, 28.01. 7:00 1026 + 0,6
Ortszeit Luftdruck NN (hPa) Tendenz (hPa in 3 Std.)
Mo, 30.01. 1:30 1026 - 1,9
Mo, 30.01. 1:20 1026 keine Meldung
Mo, 30.01. 1:10 1026 keine Meldung
Mo, 30.01. 1:00 1026 - 1,4
Mo, 30.01. 0:50 1026 keine Meldung
Mo, 30.01. 0:40 1027 keine Meldung
Mo, 30.01. 0:30 1027 - 1,6
Mo, 30.01. 0:00 1027 - 1,2
So, 29.01. 23:30 1028 - 0,6
So, 29.01. 23:00 1028 - 0,3
So, 29.01. 22:30 1028 - 0,5
Ortszeit Schneehöhe (cm)
Mo, 30.01. 1:00 0
So, 29.01. 19:00 0
So, 29.01. 13:00 0
So, 29.01. 7:00 0
So, 29.01. 1:00 0
Sa, 28.01. 19:00 0
Sa, 28.01. 13:00 0
Sa, 28.01. 7:00 0
Ortszeit Schneehöhe (cm)
Mo, 30.01. 1:30 0
Mo, 30.01. 1:20 0
Mo, 30.01. 1:10 0
Mo, 30.01. 1:00 0
Mo, 30.01. 0:50 0
Mo, 30.01. 0:40 0
Mo, 30.01. 0:30 0
Mo, 30.01. 0:00 0
So, 29.01. 23:30 0
So, 29.01. 23:00 0
So, 29.01. 22:30 0
Link zu dieser Seite / Seite empfehlen

Das Wetter in ...